Time;durP1;ratioP1;P1;durP2;ratioP2;P2;SDS_P1;SDS_P2;PMS_P1;PMS_P2;Temp;Humidity;BMP_temperature;BMP_pressure;BME280_temperature;BME280_humidity;BME280_pressure;Samples;Min_cycle;Max_cycle;Signal;HPM_P1;HPM_P2
2023/07/25 00:03:04;;;;;;;7.15;3.78;;;;;;;16.25;78.61;99802.38;15389789;28;20086;-55
2023/07/25 00:10:38;;;;;;;4.90;3.85;;;;;;;16.69;76.42;99800.97;15437402;28;20047;-54
2023/07/25 00:18:11;;;;;;;7.35;3.78;;;;;;;16.28;77.17;99807.25;15429837;28;20046;-51
2023/07/25 00:25:45;;;;;;;8.27;4.07;;;;;;;15.79;79.86;99810.44;15438019;28;20053;-53
2023/07/25 00:33:18;;;;;;;6.78;4.13;;;;;;;15.61;80.10;99816.31;15388590;28;20051;-52
2023/07/25 00:40:52;;;;;;;10.55;4.45;;;;;;;16.21;78.44;99808.59;15404083;28;20530;-51
2023/07/25 00:48:25;;;;;;;8.27;4.63;;;;;;;16.08;77.60;99815.34;15420749;28;20070;-53
2023/07/25 00:56:01;;;;;;;5.97;4.47;;;;;;;16.20;77.07;99825.94;15420385;28;20515;-56
2023/07/25 01:03:36;;;;;;;7.53;4.40;;;;;;;15.82;78.83;99819.94;15402225;28;20503;-56
2023/07/25 01:11:10;;;;;;;6.15;4.60;;;;;;;16.03;77.70;99820.75;15425977;28;20042;-51
2023/07/25 01:18:44;;;;;;;6.20;4.85;;;;;;;15.75;78.88;99822.88;15417528;28;20055;-55
2023/07/25 01:26:18;;;;;;;10.13;4.85;;;;;;;15.63;79.82;99835.81;15434785;28;20125;-53
2023/07/25 01:33:52;;;;;;;9.70;5.22;;;;;;;15.85;78.64;99840.22;15433560;28;20079;-55
2023/07/25 01:41:26;;;;;;;9.98;5.72;;;;;;;15.57;79.66;99853.09;15416299;28;20563;-51
2023/07/25 01:49:00;;;;;;;9.93;6.72;;;;;;;15.40;80.38;99850.59;15432608;28;20038;-52
2023/07/25 01:56:34;;;;;;;8.07;6.70;;;;;;;15.34;80.98;99845.41;15416705;28;20047;-51
2023/07/25 02:04:07;;;;;;;11.48;7.72;;;;;;;15.58;80.87;99857.44;15431118;28;20054;-52
2023/07/25 02:11:42;;;;;;;10.77;9.10;;;;;;;15.64;81.12;99858.28;15432281;28;20038;-54
2023/07/25 02:19:15;;;;;;;14.25;9.40;;;;;;;15.36;81.90;99867.59;15408414;28;20066;-56
2023/07/25 02:26:56;;;;;;;13.73;10.20;;;;;;;15.71;80.84;99875.88;15393043;28;20036;-56
2023/07/25 02:34:29;;;;;;;17.80;9.73;;;;;;;15.87;80.06;99882.19;15442481;28;20066;-55
2023/07/25 02:42:04;;;;;;;18.08;9.02;;;;;;;15.49;80.82;99894.19;15429070;28;20117;-56
2023/07/25 02:49:38;;;;;;;15.15;8.02;;;;;;;16.08;78.68;99891.97;15450684;28;20047;-55
2023/07/25 02:57:13;;;;;;;9.75;7.53;;;;;;;15.73;79.57;99902.69;15435173;28;20439;-56
2023/07/25 03:04:47;;;;;;;9.68;7.47;;;;;;;15.72;79.20;99909.19;15451207;28;20088;-55
2023/07/25 03:12:21;;;;;;;15.13;7.78;;;;;;;15.55;79.45;99923.69;15451612;28;20053;-53
2023/07/25 03:19:57;;;;;;;12.40;7.50;;;;;;;15.45;79.75;99918.22;15448936;28;20042;-53
2023/07/25 03:27:31;;;;;;;14.80;7.53;;;;;;;15.22;79.55;99911.34;15449441;28;20058;-55
2023/07/25 03:35:09;;;;;;;12.68;7.53;;;;;;;15.88;78.16;99907.34;15432899;28;20050;-54
2023/07/25 03:42:44;;;;;;;17.85;8.98;;;;;;;16.21;76.62;99897.97;15437248;28;20049;-55
2023/07/25 03:50:16;;;;;;;17.60;8.50;;;;;;;16.19;76.47;99909.06;15431608;28;20038;-52
2023/07/25 03:57:51;;;;;;;11.73;6.90;;;;;;;15.56;78.52;99908.25;15407479;28;20046;-56
2023/07/25 04:05:24;;;;;;;15.05;6.50;;;;;;;15.80;77.02;99903.25;15438242;28;20046;-51
2023/07/25 04:12:58;;;;;;;12.82;6.85;;;;;;;15.93;77.65;99920.88;15405685;28;20553;-53
2023/07/25 04:20:31;;;;;;;11.02;6.90;;;;;;;15.59;77.75;99915.84;15413970;28;20559;-53
2023/07/25 04:28:05;;;;;;;;;;;;;;;15.94;76.34;99922.50;15413488;28;20321;-53
2023/07/25 04:35:44;;;;;;;13.02;6.75;;;;;;;15.87;77.47;99935.50;15434819;28;20311;-53
2023/07/25 04:43:20;;;;;;;13.90;6.38;;;;;;;15.50;78.84;99928.25;15437203;28;20468;-53
2023/07/25 04:51:12;;;;;;;12.93;6.85;;;;;;;15.80;77.81;99938.44;15422550;28;20043;-53
2023/07/25 04:58:46;;;;;;;13.55;6.50;;;;;;;15.55;78.03;99937.22;15436097;28;20083;-50
2023/07/25 05:06:19;;;;;;;15.00;6.22;;;;;;;15.72;78.21;99917.31;15436334;28;20043;-51
2023/07/25 05:13:55;;;;;;;12.60;5.72;;;;;;;16.30;75.78;99910.69;15434094;28;20042;-51
2023/07/25 05:21:28;;;;;;;11.80;5.13;;;;;;;16.65;74.25;99894.78;15420520;28;20523;-46
2023/07/25 05:29:02;;;;;;;12.23;5.28;;;;;;;16.54;74.29;99897.44;15434371;28;20050;-49
2023/07/25 05:36:35;;;;;;;12.55;4.65;;;;;;;16.60;74.53;99925.38;15434223;28;20141;-49
2023/07/25 05:44:09;;;;;;;10.70;4.32;;;;;;;16.51;74.31;99927.81;15433045;28;20051;-52
2023/07/25 05:51:45;;;;;;;15.02;4.53;;;;;;;16.29;75.13;99973.25;15420279;28;20061;-50
2023/07/25 05:59:20;;;;;;;10.63;4.10;;;;;;;16.37;75.25;100016.09;15434147;28;20047;-47
2023/07/25 06:06:54;;;;;;;12.75;4.00;;;;;;;16.53;74.98;100011.50;15433173;28;20043;-47
2023/07/25 06:14:28;;;;;;;12.32;3.42;;;;;;;16.18;73.68;100017.63;15432769;28;20053;-50
2023/07/25 06:22:03;;;;;;;9.70;3.30;;;;;;;16.76;73.27;100013.75;15427414;28;20047;-53
2023/07/25 06:29:37;;;;;;;10.50;3.33;;;;;;;17.37;70.96;100012.97;15414993;28;20397;-47
2023/07/25 06:37:10;;;;;;;7.63;2.88;;;;;;;17.17;70.07;100021.13;15431852;28;20047;-50
2023/07/25 06:44:45;;;;;;;10.07;2.70;;;;;;;17.41;68.97;100022.19;15432411;28;20065;-47
2023/07/25 06:52:20;;;;;;;7.72;2.80;;;;;;;17.78;65.53;100016.44;15414852;28;20560;-54
2023/07/25 06:59:57;;;;;;;9.13;2.90;;;;;;;17.21;68.80;100016.78;15425928;28;20103;-46
2023/07/25 07:07:30;;;;;;;7.03;2.78;;;;;;;17.56;68.03;100013.19;15431245;28;20038;-49
2023/07/25 07:15:05;;;;;;;7.38;2.55;;;;;;;18.31;65.88;100016.78;15431246;28;20039;-47
2023/07/25 07:22:38;;;;;;;7.85;2.25;;;;;;;18.21;64.58;100002.44;15417713;28;20397;-51
2023/07/25 07:30:12;;;;;;;;;;;;;;;18.10;63.00;99991.63;15374765;28;20416;-57
2023/07/25 07:37:50;;;;;;;9.43;2.70;;;;;;;18.14;66.35;99974.75;15438931;28;20540;-53
2023/07/25 07:45:26;;;;;;;8.93;2.10;;;;;;;19.02;62.76;99973.94;15427383;28;20103;-57
2023/07/25 07:52:59;;;;;;;7.25;2.40;;;;;;;19.53;59.48;99974.25;15426756;28;20053;-54
2023/07/25 08:00:33;;;;;;;6.03;2.10;;;;;;;20.16;56.47;99953.41;15441026;28;20458;-54
2023/07/25 08:08:06;;;;;;;2.78;1.40;;;;;;;20.12;56.06;99947.75;15433538;28;20449;-54
2023/07/25 08:15:40;;;;;;;6.50;1.85;;;;;;;20.83;57.61;99937.72;15437837;28;20527;-56
2023/07/25 08:23:14;;;;;;;5.30;1.80;;;;;;;20.50;56.12;99940.41;15437167;28;20106;-52
2023/07/25 08:30:48;;;;;;;5.95;1.63;;;;;;;20.56;54.70;99941.97;15433080;28;20046;-54
2023/07/25 08:38:21;;;;;;;8.68;2.03;;;;;;;19.50;60.16;99955.00;15439197;28;20106;-52
2023/07/25 08:45:57;;;;;;;2.88;1.67;;;;;;;20.11;58.21;99971.47;15438820;28;20047;-55
2023/07/25 08:53:31;;;;;;;8.68;2.25;;;;;;;19.75;57.78;99964.81;15421630;28;20051;-57
2023/07/25 09:01:06;;;;;;;8.38;2.10;;;;;;;20.18;55.84;99960.19;15395166;28;20207;-55
2023/07/25 09:08:39;;;;;;;5.47;1.95;;;;;;;20.86;54.65;99956.22;15422844;28;20575;-55
2023/07/25 09:16:14;;;;;;;6.72;1.70;;;;;;;20.41;52.53;99971.31;15418582;28;20687;-53
2023/07/25 09:23:51;;;;;;;3.33;1.58;;;;;;;19.27;54.05;99987.34;15413808;28;20073;-51
2023/07/25 09:31:28;;;;;;;7.70;1.95;;;;;;;18.95;56.80;99995.22;15398683;28;20059;-49
2023/07/25 09:39:01;;;;;;;5.57;1.98;;;;;;;19.11;57.86;100010.31;15415616;28;20142;-48
2023/07/25 09:46:36;;;;;;;7.00;1.98;;;;;;;18.98;57.84;100008.22;15433026;28;20078;-48
2023/07/25 09:54:09;;;;;;;5.22;1.80;;;;;;;19.54;56.10;100003.13;15432856;28;20078;-48
2023/07/25 10:01:46;;;;;;;7.22;2.00;;;;;;;19.79;57.45;99996.63;15407412;28;20050;-51
2023/07/25 10:09:20;;;;;;;3.47;1.70;;;;;;;19.77;51.97;99987.09;15432258;28;20047;-52
2023/07/25 10:16:54;;;;;;;4.28;1.90;;;;;;;19.04;56.01;99991.59;15432013;28;20051;-54
2023/07/25 10:24:34;;;;;;;2.83;1.50;;;;;;;19.94;55.67;99989.38;15432618;28;20099;-50
2023/07/25 10:32:09;;;;;;;6.25;1.65;;;;;;;19.82;53.40;99989.81;15415542;28;20042;-47
2023/07/25 10:39:42;;;;;;;4.63;1.63;;;;;;;21.70;49.69;99977.97;15383508;28;20047;-48
2023/07/25 10:47:44;;;;;;;6.63;1.92;;;;;;;22.48;48.53;99975.28;15422976;28;20042;-51
2023/07/25 10:55:17;;;;;;;2.55;1.52;;;;;;;21.84;49.62;99967.84;15423402;28;20579;-50
2023/07/25 11:02:51;;;;;;;4.88;1.75;;;;;;;20.27;49.53;99979.41;15441284;28;20399;-50
2023/07/25 11:10:25;;;;;;;4.43;1.50;;;;;;;20.94;50.96;99966.47;15441891;28;20491;-54
2023/07/25 11:18:05;;;;;;;3.83;1.50;;;;;;;20.66;49.17;99962.81;15459803;23;20320;-56
2023/07/25 11:25:39;;;;;;;3.70;1.50;;;;;;;20.25;47.91;99951.66;15562198;28;20053;-57
2023/07/25 11:33:14;;;;;;;4.75;1.50;;;;;;;20.28;50.21;99942.88;15559704;28;20096;-56
2023/07/25 11:40:51;;;;;;;4.35;1.70;;;;;;;20.55;48.96;99940.31;15554537;28;20054;-54
2023/07/25 11:48:26;;;;;;;5.60;1.85;;;;;;;21.15;48.17;99924.06;15563020;28;20048;-57
2023/07/25 11:56:00;;;;;;;2.88;1.60;;;;;;;22.42;45.33;99915.19;15545129;28;20121;-58
2023/07/25 12:03:34;;;;;;;5.05;1.60;;;;;;;22.67;44.17;99913.00;15544337;28;20475;-57
2023/07/25 12:11:09;;;;;;;3.83;1.33;;;;;;;23.05;42.96;99910.69;15565376;28;20053;-55
2023/07/25 12:18:44;;;;;;;5.68;1.25;;;;;;;24.30;43.50;99904.97;15587627;28;20042;-54
2023/07/25 12:26:20;;;;;;;3.42;1.08;;;;;;;24.73;38.57;99906.91;15589647;28;20064;-54
2023/07/25 12:33:54;;;;;;;3.58;1.30;;;;;;;24.07;39.41;99909.78;15585099;28;20045;-56
2023/07/25 12:41:27;;;;;;;2.70;1.10;;;;;;;24.19;40.41;99901.72;15535941;28;20046;-54
2023/07/25 12:49:02;;;;;;;3.10;1.20;;;;;;;23.15;43.31;99898.66;15557492;28;20070;-53
2023/07/25 12:56:35;;;;;;;5.15;1.52;;;;;;;22.28;44.06;99908.16;15526877;28;20035;-54
2023/07/25 13:04:09;;;;;;;10.07;1.40;;;;;;;21.40;45.70;99913.81;15554488;28;20137;-55
2023/07/25 13:11:42;;;;;;;3.45;1.40;;;;;;;21.46;46.00;99914.53;15558156;28;20045;-55
2023/07/25 13:19:16;;;;;;;3.72;1.20;;;;;;;21.34;45.50;99915.81;15555050;28;20046;-54
2023/07/25 13:26:49;;;;;;;3.83;1.40;;;;;;;21.19;46.99;99926.19;15530234;28;20078;-55
2023/07/25 13:34:23;;;;;;;4.32;1.33;;;;;;;20.32;45.18;99925.66;15564033;28;20058;-59
2023/07/25 13:41:56;;;;;;;6.30;1.40;;;;;;;20.35;46.63;99916.88;15558566;28;20491;-53
2023/07/25 13:49:31;;;;;;;4.38;1.38;;;;;;;20.85;45.82;99917.22;15550217;28;20076;-56
2023/07/25 13:57:04;;;;;;;5.88;1.40;;;;;;;20.70;46.91;99914.72;15545820;28;20095;-54
2023/07/25 14:04:39;;;;;;;3.72;1.35;;;;;;;20.88;45.83;99905.69;15539513;28;20073;-55
2023/07/25 14:12:12;;;;;;;3.78;1.60;;;;;;;21.19;44.22;99923.47;15548830;28;20454;-55
2023/07/25 14:19:47;;;;;;;3.60;1.40;;;;;;;20.91;45.79;99917.94;15534690;28;20538;-58
2023/07/25 14:27:22;;;;;;;4.85;1.65;;;;;;;21.09;46.26;99910.81;15535905;28;20038;-54
2023/07/25 14:34:56;;;;;;;4.95;1.73;;;;;;;21.48;44.84;99915.84;15530555;28;20053;-54
2023/07/25 14:42:29;;;;;;;6.47;1.27;;;;;;;21.42;43.66;99921.72;15538884;28;20046;-54
2023/07/25 14:50:03;;;;;;;5.50;1.75;;;;;;;21.61;44.11;99908.75;15543686;28;20093;-54
2023/07/25 14:57:36;;;;;;;4.53;1.40;;;;;;;21.99;43.99;99897.59;15542838;28;20141;-57
2023/07/25 15:05:11;;;;;;;3.80;1.73;;;;;;;21.64;44.53;99908.97;15539138;28;20049;-55
2023/07/25 15:12:45;;;;;;;3.72;1.52;;;;;;;21.41;42.75;99909.19;15531302;28;20048;-58
2023/07/25 15:20:22;;;;;;;3.90;1.73;;;;;;;22.11;43.51;99904.19;15551028;28;20048;-58
2023/07/25 15:27:56;;;;;;;4.20;1.50;;;;;;;22.41;45.13;99890.91;15592279;28;20045;-56
2023/07/25 15:35:30;;;;;;;3.45;1.27;;;;;;;21.99;43.54;99894.84;15545417;28;20141;-57
2023/07/25 15:43:03;;;;;;;4.43;1.70;;;;;;;21.62;43.55;99904.91;15573613;28;20215;-56
2023/07/25 15:50:37;;;;;;;4.90;1.52;;;;;;;21.68;43.41;99909.16;15624456;28;20111;-56
2023/07/25 15:58:10;;;;;;;8.23;1.80;;;;;;;21.33;43.81;99908.75;15606445;28;20049;-55
2023/07/25 16:05:45;;;;;;;4.13;1.45;;;;;;;21.40;43.97;99916.53;15606201;28;20048;-54
2023/07/25 16:13:18;;;;;;;5.30;1.90;;;;;;;21.59;44.62;99906.34;15554425;28;20142;-56
2023/07/25 16:20:52;;;;;;;7.80;1.85;;;;;;;21.25;45.51;99900.41;15561792;28;20446;-52
2023/07/25 16:28:25;;;;;;;3.70;1.80;;;;;;;21.23;44.03;99892.53;15562256;28;20050;-54
2023/07/25 16:36:00;;;;;;;6.10;1.83;;;;;;;21.05;44.23;99898.88;15567622;28;20037;-57
2023/07/25 16:43:33;;;;;;;5.13;1.80;;;;;;;21.28;45.08;99897.09;15579298;28;20077;-56
2023/07/25 16:51:08;;;;;;;4.22;1.80;;;;;;;21.33;45.14;99905.22;15590344;28;20479;-53
2023/07/25 16:58:41;;;;;;;4.80;1.90;;;;;;;21.37;45.04;99911.69;15525532;28;20049;-55
2023/07/25 17:06:15;;;;;;;6.60;1.98;;;;;;;21.22;45.33;99912.75;15603624;28;20052;-56
2023/07/25 17:13:48;;;;;;;4.28;1.80;;;;;;;20.74;45.11;99923.13;15571565;28;20046;-55
2023/07/25 17:21:23;;;;;;;3.47;1.77;;;;;;;20.32;46.39;99931.09;15519958;23;20051;-53
2023/07/25 17:28:56;;;;;;;7.57;2.30;;;;;;;20.96;47.07;99941.59;15458157;28;20129;-47
2023/07/25 17:36:31;;;;;;;5.05;1.85;;;;;;;20.86;46.62;99939.84;15473518;28;20125;-50
2023/07/25 17:44:04;;;;;;;4.80;1.80;;;;;;;20.96;45.99;99939.69;15490183;28;20383;-50
2023/07/25 17:51:39;;;;;;;7.55;2.00;;;;;;;20.89;45.95;99942.00;15471645;28;20459;-47
2023/07/25 17:59:12;;;;;;;6.05;1.92;;;;;;;20.20;47.31;99940.84;15550888;28;20046;-49
2023/07/25 18:06:46;;;;;;;;;;;;;;;20.41;46.84;99942.16;15502885;28;20088;-50
2023/07/25 18:14:19;;;;;;;8.55;1.67;;;;;;;19.54;49.09;99959.59;15483783;28;19928;-53
2023/07/25 18:21:53;;;;;;;5.43;2.13;;;;;;;19.33;48.68;99971.75;15479433;28;20480;-49
2023/07/25 18:29:26;;;;;;;5.10;1.60;;;;;;;19.36;49.30;99982.09;15492906;28;20051;-49
2023/07/25 18:37:00;;;;;;;;;;;;;;;19.29;48.08;99993.28;15488137;28;20108;-49
2023/07/25 18:44:33;;;;;;;3.80;1.33;;;;;;;19.29;47.89;99996.00;15470768;28;19984;-52
2023/07/25 18:52:10;;;;;;;5.00;1.30;;;;;;;19.14;48.16;100017.91;15486113;28;20447;-50
2023/07/25 18:59:43;;;;;;;2.30;1.10;;;;;;;18.99;46.97;100023.47;15484957;28;20125;-50
2023/07/25 19:07:18;;;;;;;2.65;0.93;;;;;;;18.99;47.57;100026.19;15442360;28;20042;-49
2023/07/25 19:14:51;;;;;;;7.78;1.05;;;;;;;19.25;47.14;100043.94;15486524;28;20050;-45
2023/07/25 19:22:25;;;;;;;;;;;;;;;18.87;47.06;100051.03;15496413;28;20076;-49
2023/07/25 19:29:58;;;;;;;2.90;0.88;;;;;;;18.89;47.53;100067.06;15480449;28;19926;-54
2023/07/25 19:37:32;;;;;;;4.05;1.08;;;;;;;18.97;47.34;100078.13;15498114;28;20054;-53
2023/07/25 19:45:06;;;;;;;2.50;1.00;;;;;;;18.82;47.44;100095.38;15497615;28;20050;-48
2023/07/25 19:52:41;;;;;;;3.45;1.00;;;;;;;18.81;48.54;100088.31;15496215;28;20100;-50
2023/07/25 20:00:14;;;;;;;4.55;1.13;;;;;;;18.79;47.87;100095.94;15496709;28;20145;-51
2023/07/25 20:07:50;;;;;;;7.20;1.38;;;;;;;18.48;48.70;100097.16;15478045;28;20046;-47
2023/07/25 20:15:22;;;;;;;3.40;1.00;;;;;;;19.12;47.63;100090.84;15495679;28;20046;-49
2023/07/25 20:22:56;;;;;;;5.07;1.25;;;;;;;18.86;49.38;100093.72;15493289;28;20038;-49
2023/07/25 20:30:30;;;;;;;4.70;1.00;;;;;;;18.94;49.93;100102.41;15493325;28;20042;-49
2023/07/25 20:38:04;;;;;;;;;;;;;;;18.68;50.42;100126.94;15476935;28;20051;-47
2023/07/25 20:45:37;;;;;;;3.30;1.20;;;;;;;18.46;51.29;100130.03;15492745;28;20025;-47
2023/07/25 20:53:11;;;;;;;;;;;;;;;18.66;52.09;100150.91;15492642;28;20050;-50
2023/07/25 21:00:44;;;;;;;4.03;1.30;;;;;;;18.16;53.87;100162.72;15492115;28;20606;-50
2023/07/25 21:08:18;;;;;;;4.45;1.27;;;;;;;17.98;54.65;100166.81;15492110;28;20119;-48
2023/07/25 21:15:51;;;;;;;3.88;1.50;;;;;;;18.01;54.87;100179.88;15475012;28;20134;-49
2023/07/25 21:23:25;;;;;;;4.63;1.20;;;;;;;17.66;55.29;100189.59;15490866;28;20049;-47
2023/07/25 21:30:59;;;;;;;7.88;1.30;;;;;;;17.29;55.91;100190.63;15473512;28;20567;-49
2023/07/25 21:38:33;;;;;;;4.65;1.20;;;;;;;17.76;54.46;100203.19;15490972;28;20058;-54
2023/07/25 21:46:06;;;;;;;6.95;1.40;;;;;;;17.39;55.36;100208.81;15489115;28;20050;-50
2023/07/25 21:53:42;;;;;;;3.72;1.30;;;;;;;17.50;54.76;100221.34;15472115;28;20113;-48
2023/07/25 22:01:14;;;;;;;5.80;1.27;;;;;;;17.42;54.74;100216.44;15489180;28;20050;-51
2023/07/25 22:08:51;;;;;;;4.82;1.20;;;;;;;17.18;55.25;100231.56;15490141;28;20042;-51
2023/07/25 22:16:26;;;;;;;4.40;1.35;;;;;;;17.17;55.10;100230.75;15489826;28;20050;-47
2023/07/25 22:24:03;;;;;;;9.18;1.65;;;;;;;17.23;55.18;100237.00;15459554;28;20416;-53
2023/07/25 22:31:36;;;;;;;5.10;1.35;;;;;;;17.26;55.00;100239.19;15488491;28;20411;-53
2023/07/25 22:39:10;;;;;;;6.57;1.10;;;;;;;16.89;54.70;100242.84;15487609;28;20507;-51
2023/07/25 22:46:45;;;;;;;4.38;1.60;;;;;;;17.07;54.51;100255.94;15488985;28;20082;-48
2023/07/25 22:54:19;;;;;;;5.10;1.30;;;;;;;17.41;54.13;100257.41;15492493;28;20176;-46
2023/07/25 23:01:52;;;;;;;3.55;1.30;;;;;;;17.20;54.75;100259.22;15497866;28;20038;-50
2023/07/25 23:09:26;;;;;;;5.03;1.20;;;;;;;17.04;54.24;100266.50;15499204;28;20089;-53
2023/07/25 23:17:01;;;;;;;6.50;1.60;;;;;;;17.11;53.94;100280.59;15498913;28;20054;-52
2023/07/25 23:24:37;;;;;;;4.88;1.00;;;;;;;16.59;55.82;100282.19;15575727;23;20462;-51
2023/07/25 23:32:09;;;;;;;6.57;1.15;;;;;;;16.62;54.55;100289.00;15533208;28;20137;-50
2023/07/25 23:39:44;;;;;;;5.63;1.40;;;;;;;16.59;54.12;100301.16;15536579;28;20049;-51
2023/07/25 23:47:17;;;;;;;6.93;1.15;;;;;;;16.77;54.51;100305.38;15494587;28;20049;-50
2023/07/25 23:54:51;;;;;;;4.95;1.33;;;;;;;16.69;54.77;100307.72;15563110;28;20041;-51
